sensor_id;sensor_type;location;lat;lon;timestamp;P1;durP1;ratioP1;P2;durP2;ratioP2
11533;SDS011;5823;50.588;8.462;2023-05-07T00:02:00;0.30;;;0.30;;
11533;SDS011;5823;50.588;8.462;2023-05-07T00:04:28;0.08;;;0.08;;
11533;SDS011;5823;50.588;8.462;2023-05-07T00:07:00;0.10;;;0.10;;
11533;SDS011;5823;50.588;8.462;2023-05-07T00:09:27;0.22;;;0.22;;
11533;SDS011;5823;50.588;8.462;2023-05-07T00:11:53;0.20;;;0.20;;
11533;SDS011;5823;50.588;8.462;2023-05-07T00:14:20;0.20;;;0.20;;
11533;SDS011;5823;50.588;8.462;2023-05-07T00:16:47;0.22;;;0.22;;
11533;SDS011;5823;50.588;8.462;2023-05-07T00:19:13;0.10;;;0.10;;
11533;SDS011;5823;50.588;8.462;2023-05-07T00:21:39;0.25;;;0.20;;
11533;SDS011;5823;50.588;8.462;2023-05-07T00:24:06;0.22;;;0.22;;
11533;SDS011;5823;50.588;8.462;2023-05-07T00:26:32;0.20;;;0.20;;
11533;SDS011;5823;50.588;8.462;2023-05-07T00:28:58;0.20;;;0.20;;
11533;SDS011;5823;50.588;8.462;2023-05-07T00:31:26;0.20;;;0.20;;
11533;SDS011;5823;50.588;8.462;2023-05-07T00:33:52;0.28;;;0.20;;
11533;SDS011;5823;50.588;8.462;2023-05-07T00:36:18;0.30;;;0.30;;
11533;SDS011;5823;50.588;8.462;2023-05-07T00:38:45;0.10;;;0.10;;
11533;SDS011;5823;50.588;8.462;2023-05-07T00:41:11;0.20;;;0.20;;
11533;SDS011;5823;50.588;8.462;2023-05-07T00:43:37;0.30;;;0.30;;
11533;SDS011;5823;50.588;8.462;2023-05-07T00:46:03;0.13;;;0.13;;
11533;SDS011;5823;50.588;8.462;2023-05-07T00:48:31;0.17;;;0.17;;
11533;SDS011;5823;50.588;8.462;2023-05-07T00:50:57;0.20;;;0.20;;
11533;SDS011;5823;50.588;8.462;2023-05-07T00:53:24;0.10;;;0.10;;
11533;SDS011;5823;50.588;8.462;2023-05-07T00:55:51;0.20;;;0.20;;
11533;SDS011;5823;50.588;8.462;2023-05-07T00:58:17;0.30;;;0.25;;
11533;SDS011;5823;50.588;8.462;2023-05-07T01:00:44;0.10;;;0.10;;
11533;SDS011;5823;50.588;8.462;2023-05-07T01:03:10;0.00;;;0.00;;
11533;SDS011;5823;50.588;8.462;2023-05-07T01:05:38;0.20;;;0.20;;
11533;SDS011;5823;50.588;8.462;2023-05-07T01:08:04;0.20;;;0.20;;
11533;SDS011;5823;50.588;8.462;2023-05-07T01:10:31;0.40;;;0.40;;
11533;SDS011;5823;50.588;8.462;2023-05-07T01:12:57;0.10;;;0.10;;
11533;SDS011;5823;50.588;8.462;2023-05-07T01:15:24;0.10;;;0.10;;
11533;SDS011;5823;50.588;8.462;2023-05-07T01:17:51;0.10;;;0.10;;
11533;SDS011;5823;50.588;8.462;2023-05-07T01:20:17;0.22;;;0.22;;
11533;SDS011;5823;50.588;8.462;2023-05-07T01:22:45;0.15;;;0.15;;
11533;SDS011;5823;50.588;8.462;2023-05-07T01:25:11;0.22;;;0.22;;
11533;SDS011;5823;50.588;8.462;2023-05-07T01:27:38;0.30;;;0.30;;
11533;SDS011;5823;50.588;8.462;2023-05-07T01:30:05;0.20;;;0.20;;
11533;SDS011;5823;50.588;8.462;2023-05-07T01:32:32;0.20;;;0.20;;
11533;SDS011;5823;50.588;8.462;2023-05-07T01:34:59;0.38;;;0.38;;
11533;SDS011;5823;50.588;8.462;2023-05-07T01:37:26;0.20;;;0.20;;
11533;SDS011;5823;50.588;8.462;2023-05-07T01:39:54;0.10;;;0.10;;
11533;SDS011;5823;50.588;8.462;2023-05-07T01:42:21;0.20;;;0.20;;
11533;SDS011;5823;50.588;8.462;2023-05-07T01:44:47;0.20;;;0.20;;
11533;SDS011;5823;50.588;8.462;2023-05-07T01:47:14;0.20;;;0.20;;
11533;SDS011;5823;50.588;8.462;2023-05-07T01:49:40;0.30;;;0.30;;
11533;SDS011;5823;50.588;8.462;2023-05-07T01:52:09;0.20;;;0.20;;
11533;SDS011;5823;50.588;8.462;2023-05-07T01:54:36;0.10;;;0.10;;
11533;SDS011;5823;50.588;8.462;2023-05-07T01:57:03;0.20;;;0.20;;
11533;SDS011;5823;50.588;8.462;2023-05-07T01:59:30;0.10;;;0.10;;
11533;SDS011;5823;50.588;8.462;2023-05-07T02:01:56;0.20;;;0.20;;
11533;SDS011;5823;50.588;8.462;2023-05-07T02:04:22;0.10;;;0.10;;
11533;SDS011;5823;50.588;8.462;2023-05-07T02:06:49;0.13;;;0.13;;
11533;SDS011;5823;50.588;8.462;2023-05-07T02:09:15;0.00;;;0.00;;
11533;SDS011;5823;50.588;8.462;2023-05-07T02:11:42;0.17;;;0.13;;
11533;SDS011;5823;50.588;8.462;2023-05-07T02:14:09;0.00;;;0.00;;
11533;SDS011;5823;50.588;8.462;2023-05-07T02:16:36;0.20;;;0.20;;
11533;SDS011;5823;50.588;8.462;2023-05-07T02:19:02;0.10;;;0.10;;
11533;SDS011;5823;50.588;8.462;2023-05-07T02:21:28;0.17;;;0.17;;
11533;SDS011;5823;50.588;8.462;2023-05-07T02:23:55;0.10;;;0.10;;
11533;SDS011;5823;50.588;8.462;2023-05-07T02:26:21;0.10;;;0.10;;
11533;SDS011;5823;50.588;8.462;2023-05-07T02:28:47;0.10;;;0.10;;
11533;SDS011;5823;50.588;8.462;2023-05-07T02:31:15;0.10;;;0.10;;
11533;SDS011;5823;50.588;8.462;2023-05-07T02:33:41;0.30;;;0.30;;
11533;SDS011;5823;50.588;8.462;2023-05-07T02:36:07;0.20;;;0.20;;
11533;SDS011;5823;50.588;8.462;2023-05-07T02:38:34;0.10;;;0.10;;
11533;SDS011;5823;50.588;8.462;2023-05-07T02:41:00;0.20;;;0.20;;
11533;SDS011;5823;50.588;8.462;2023-05-07T02:43:26;0.10;;;0.10;;
11533;SDS011;5823;50.588;8.462;2023-05-07T02:45:59;0.20;;;0.20;;
11533;SDS011;5823;50.588;8.462;2023-05-07T02:48:27;0.10;;;0.10;;
11533;SDS011;5823;50.588;8.462;2023-05-07T02:50:53;0.43;;;0.40;;
11533;SDS011;5823;50.588;8.462;2023-05-07T02:53:19;0.20;;;0.20;;
11533;SDS011;5823;50.588;8.462;2023-05-07T02:55:46;0.05;;;0.05;;
11533;SDS011;5823;50.588;8.462;2023-05-07T02:58:12;0.00;;;0.00;;
11533;SDS011;5823;50.588;8.462;2023-05-07T03:00:38;0.20;;;0.20;;
11533;SDS011;5823;50.588;8.462;2023-05-07T03:03:05;0.20;;;0.20;;
11533;SDS011;5823;50.588;8.462;2023-05-07T03:05:32;0.35;;;0.35;;
11533;SDS011;5823;50.588;8.462;2023-05-07T03:07:59;0.30;;;0.30;;
11533;SDS011;5823;50.588;8.462;2023-05-07T03:10:25;0.25;;;0.25;;
11533;SDS011;5823;50.588;8.462;2023-05-07T03:12:51;0.20;;;0.20;;
11533;SDS011;5823;50.588;8.462;2023-05-07T03:15:17;0.15;;;0.15;;
11533;SDS011;5823;50.588;8.462;2023-05-07T03:17:43;0.10;;;0.10;;
11533;SDS011;5823;50.588;8.462;2023-05-07T03:20:10;0.10;;;0.10;;
11533;SDS011;5823;50.588;8.462;2023-05-07T03:22:38;0.10;;;0.10;;
11533;SDS011;5823;50.588;8.462;2023-05-07T03:25:05;0.35;;;0.22;;
11533;SDS011;5823;50.588;8.462;2023-05-07T03:27:31;0.17;;;0.17;;
11533;SDS011;5823;50.588;8.462;2023-05-07T03:29:57;0.10;;;0.10;;
11533;SDS011;5823;50.588;8.462;2023-05-07T03:32:23;0.20;;;0.20;;
11533;SDS011;5823;50.588;8.462;2023-05-07T03:34:50;0.22;;;0.22;;
11533;SDS011;5823;50.588;8.462;2023-05-07T03:37:16;0.17;;;0.17;;
11533;SDS011;5823;50.588;8.462;2023-05-07T03:39:44;0.20;;;0.20;;
11533;SDS011;5823;50.588;8.462;2023-05-07T03:42:10;0.20;;;0.20;;
11533;SDS011;5823;50.588;8.462;2023-05-07T03:44:36;0.25;;;0.17;;
11533;SDS011;5823;50.588;8.462;2023-05-07T03:47:03;0.40;;;0.40;;
11533;SDS011;5823;50.588;8.462;2023-05-07T03:49:29;0.20;;;0.20;;
11533;SDS011;5823;50.588;8.462;2023-05-07T03:51:55;0.13;;;0.13;;
11533;SDS011;5823;50.588;8.462;2023-05-07T03:54:22;0.95;;;0.30;;
11533;SDS011;5823;50.588;8.462;2023-05-07T03:56:49;0.08;;;0.08;;
11533;SDS011;5823;50.588;8.462;2023-05-07T03:59:15;0.05;;;0.05;;
11533;SDS011;5823;50.588;8.462;2023-05-07T04:01:42;0.20;;;0.20;;
11533;SDS011;5823;50.588;8.462;2023-05-07T04:04:08;0.10;;;0.10;;
11533;SDS011;5823;50.588;8.462;2023-05-07T04:06:34;0.20;;;0.20;;
11533;SDS011;5823;50.588;8.462;2023-05-07T04:09:00;0.20;;;0.20;;
11533;SDS011;5823;50.588;8.462;2023-05-07T04:11:26;0.70;;;0.30;;
11533;SDS011;5823;50.588;8.462;2023-05-07T04:13:54;0.20;;;0.20;;
11533;SDS011;5823;50.588;8.462;2023-05-07T04:16:20;0.10;;;0.10;;
11533;SDS011;5823;50.588;8.462;2023-05-07T04:18:46;0.20;;;0.20;;
11533;SDS011;5823;50.588;8.462;2023-05-07T04:21:16;0.20;;;0.20;;
11533;SDS011;5823;50.588;8.462;2023-05-07T04:23:42;0.15;;;0.15;;
11533;SDS011;5823;50.588;8.462;2023-05-07T04:26:09;0.20;;;0.20;;
11533;SDS011;5823;50.588;8.462;2023-05-07T04:28:36;0.30;;;0.30;;
11533;SDS011;5823;50.588;8.462;2023-05-07T04:31:03;0.30;;;0.30;;
11533;SDS011;5823;50.588;8.462;2023-05-07T04:33:29;0.15;;;0.15;;
11533;SDS011;5823;50.588;8.462;2023-05-07T04:35:56;0.20;;;0.20;;
11533;SDS011;5823;50.588;8.462;2023-05-07T04:38:22;0.28;;;0.28;;
11533;SDS011;5823;50.588;8.462;2023-05-07T04:40:49;0.25;;;0.25;;
11533;SDS011;5823;50.588;8.462;2023-05-07T04:43:16;0.17;;;0.17;;
11533;SDS011;5823;50.588;8.462;2023-05-07T04:45:42;0.20;;;0.20;;
11533;SDS011;5823;50.588;8.462;2023-05-07T04:48:10;0.30;;;0.30;;
11533;SDS011;5823;50.588;8.462;2023-05-07T04:50:36;0.30;;;0.30;;
11533;SDS011;5823;50.588;8.462;2023-05-07T04:53:03;0.30;;;0.30;;
11533;SDS011;5823;50.588;8.462;2023-05-07T04:55:29;0.15;;;0.15;;
11533;SDS011;5823;50.588;8.462;2023-05-07T04:57:55;0.10;;;0.10;;
11533;SDS011;5823;50.588;8.462;2023-05-07T05:00:22;0.20;;;0.20;;
11533;SDS011;5823;50.588;8.462;2023-05-07T05:02:48;0.10;;;0.10;;
11533;SDS011;5823;50.588;8.462;2023-05-07T05:05:16;0.10;;;0.10;;
11533;SDS011;5823;50.588;8.462;2023-05-07T05:07:42;0.20;;;0.20;;
11533;SDS011;5823;50.588;8.462;2023-05-07T05:10:08;0.35;;;0.35;;
11533;SDS011;5823;50.588;8.462;2023-05-07T05:12:35;0.10;;;0.10;;
11533;SDS011;5823;50.588;8.462;2023-05-07T05:15:01;0.20;;;0.20;;
11533;SDS011;5823;50.588;8.462;2023-05-07T05:17:27;0.13;;;0.13;;
11533;SDS011;5823;50.588;8.462;2023-05-07T05:19:53;0.20;;;0.20;;
11533;SDS011;5823;50.588;8.462;2023-05-07T05:22:21;0.25;;;0.25;;
11533;SDS011;5823;50.588;8.462;2023-05-07T05:24:47;0.30;;;0.30;;
11533;SDS011;5823;50.588;8.462;2023-05-07T05:27:13;0.20;;;0.20;;
11533;SDS011;5823;50.588;8.462;2023-05-07T05:29:39;0.30;;;0.15;;
11533;SDS011;5823;50.588;8.462;2023-05-07T05:32:06;0.20;;;0.20;;
11533;SDS011;5823;50.588;8.462;2023-05-07T05:34:32;0.20;;;0.20;;
11533;SDS011;5823;50.588;8.462;2023-05-07T05:36:58;0.25;;;0.25;;
11533;SDS011;5823;50.588;8.462;2023-05-07T05:39:26;0.00;;;0.00;;
11533;SDS011;5823;50.588;8.462;2023-05-07T05:41:52;0.20;;;0.20;;
11533;SDS011;5823;50.588;8.462;2023-05-07T05:44:18;0.20;;;0.20;;
11533;SDS011;5823;50.588;8.462;2023-05-07T05:46:44;0.30;;;0.30;;
11533;SDS011;5823;50.588;8.462;2023-05-07T05:49:11;0.30;;;0.30;;
11533;SDS011;5823;50.588;8.462;2023-05-07T05:51:37;0.17;;;0.17;;
11533;SDS011;5823;50.588;8.462;2023-05-07T05:54:03;0.20;;;0.20;;
11533;SDS011;5823;50.588;8.462;2023-05-07T05:56:31;0.30;;;0.30;;
11533;SDS011;5823;50.588;8.462;2023-05-07T05:58:57;0.35;;;0.35;;
11533;SDS011;5823;50.588;8.462;2023-05-07T06:01:23;0.40;;;0.40;;
11533;SDS011;5823;50.588;8.462;2023-05-07T06:03:50;0.50;;;0.50;;
11533;SDS011;5823;50.588;8.462;2023-05-07T06:06:16;0.50;;;0.50;;
11533;SDS011;5823;50.588;8.462;2023-05-07T06:08:42;0.47;;;0.47;;
11533;SDS011;5823;50.588;8.462;2023-05-07T06:11:08;0.30;;;0.30;;
11533;SDS011;5823;50.588;8.462;2023-05-07T06:13:36;0.35;;;0.35;;
11533;SDS011;5823;50.588;8.462;2023-05-07T06:16:02;0.20;;;0.20;;
11533;SDS011;5823;50.588;8.462;2023-05-07T06:18:28;0.30;;;0.30;;
11533;SDS011;5823;50.588;8.462;2023-05-07T06:20:55;0.40;;;0.40;;
11533;SDS011;5823;50.588;8.462;2023-05-07T06:23:21;0.20;;;0.20;;
11533;SDS011;5823;50.588;8.462;2023-05-07T06:25:48;0.20;;;0.20;;
11533;SDS011;5823;50.588;8.462;2023-05-07T06:28:14;0.20;;;0.20;;
11533;SDS011;5823;50.588;8.462;2023-05-07T06:30:42;0.30;;;0.30;;
11533;SDS011;5823;50.588;8.462;2023-05-07T06:33:08;0.43;;;0.43;;
11533;SDS011;5823;50.588;8.462;2023-05-07T06:35:34;0.32;;;0.32;;
11533;SDS011;5823;50.588;8.462;2023-05-07T06:38:00;0.32;;;0.32;;
11533;SDS011;5823;50.588;8.462;2023-05-07T06:40:26;0.63;;;0.63;;
11533;SDS011;5823;50.588;8.462;2023-05-07T06:42:53;0.40;;;0.40;;
11533;SDS011;5823;50.588;8.462;2023-05-07T06:45:19;0.50;;;0.50;;
11533;SDS011;5823;50.588;8.462;2023-05-07T06:47:47;0.63;;;0.63;;
11533;SDS011;5823;50.588;8.462;2023-05-07T06:50:13;0.40;;;0.40;;
11533;SDS011;5823;50.588;8.462;2023-05-07T06:52:41;0.50;;;0.50;;
11533;SDS011;5823;50.588;8.462;2023-05-07T06:55:08;0.57;;;0.57;;
11533;SDS011;5823;50.588;8.462;2023-05-07T06:57:34;0.60;;;0.60;;
11533;SDS011;5823;50.588;8.462;2023-05-07T07:00:01;0.90;;;0.70;;
11533;SDS011;5823;50.588;8.462;2023-05-07T07:02:27;0.50;;;0.50;;
11533;SDS011;5823;50.588;8.462;2023-05-07T07:04:55;0.40;;;0.38;;
11533;SDS011;5823;50.588;8.462;2023-05-07T07:07:21;0.60;;;0.60;;
11533;SDS011;5823;50.588;8.462;2023-05-07T07:09:47;0.55;;;0.55;;
11533;SDS011;5823;50.588;8.462;2023-05-07T07:12:13;0.90;;;0.90;;
11533;SDS011;5823;50.588;8.462;2023-05-07T07:14:39;0.40;;;0.40;;
11533;SDS011;5823;50.588;8.462;2023-05-07T07:17:06;0.55;;;0.55;;
11533;SDS011;5823;50.588;8.462;2023-05-07T07:19:32;0.90;;;0.70;;
11533;SDS011;5823;50.588;8.462;2023-05-07T07:21:59;0.85;;;0.73;;
11533;SDS011;5823;50.588;8.462;2023-05-07T07:24:26;0.70;;;0.70;;
11533;SDS011;5823;50.588;8.462;2023-05-07T07:26:52;0.80;;;0.80;;
11533;SDS011;5823;50.588;8.462;2023-05-07T07:29:20;0.70;;;0.70;;
11533;SDS011;5823;50.588;8.462;2023-05-07T07:31:47;0.90;;;0.90;;
11533;SDS011;5823;50.588;8.462;2023-05-07T07:34:13;1.02;;;1.00;;
11533;SDS011;5823;50.588;8.462;2023-05-07T07:36:40;1.08;;;0.98;;
11533;SDS011;5823;50.588;8.462;2023-05-07T07:39:07;1.08;;;1.00;;
11533;SDS011;5823;50.588;8.462;2023-05-07T07:41:33;1.00;;;1.00;;
11533;SDS011;5823;50.588;8.462;2023-05-07T07:44:00;1.17;;;1.10;;
11533;SDS011;5823;50.588;8.462;2023-05-07T07:46:28;0.63;;;0.63;;
11533;SDS011;5823;50.588;8.462;2023-05-07T07:48:54;0.95;;;0.95;;
11533;SDS011;5823;50.588;8.462;2023-05-07T07:51:23;0.80;;;0.80;;
11533;SDS011;5823;50.588;8.462;2023-05-07T07:53:50;1.60;;;1.50;;
11533;SDS011;5823;50.588;8.462;2023-05-07T07:56:17;0.90;;;0.90;;
11533;SDS011;5823;50.588;8.462;2023-05-07T07:58:44;0.88;;;0.88;;
11533;SDS011;5823;50.588;8.462;2023-05-07T08:01:10;0.80;;;0.80;;
11533;SDS011;5823;50.588;8.462;2023-05-07T08:03:37;0.77;;;0.77;;
11533;SDS011;5823;50.588;8.462;2023-05-07T08:06:03;0.73;;;0.73;;
11533;SDS011;5823;50.588;8.462;2023-05-07T08:08:30;1.00;;;0.90;;
11533;SDS011;5823;50.588;8.462;2023-05-07T08:10:56;0.82;;;0.82;;
11533;SDS011;5823;50.588;8.462;2023-05-07T08:13:23;1.30;;;1.20;;
11533;SDS011;5823;50.588;8.462;2023-05-07T08:15:50;1.30;;;1.20;;
11533;SDS011;5823;50.588;8.462;2023-05-07T08:18:16;1.20;;;1.10;;
11533;SDS011;5823;50.588;8.462;2023-05-07T08:20:42;0.93;;;0.90;;
11533;SDS011;5823;50.588;8.462;2023-05-07T08:23:08;0.90;;;0.90;;
11533;SDS011;5823;50.588;8.462;2023-05-07T08:25:35;1.25;;;1.15;;
11533;SDS011;5823;50.588;8.462;2023-05-07T08:28:01;1.00;;;1.00;;
11533;SDS011;5823;50.588;8.462;2023-05-07T08:30:29;1.40;;;1.30;;
11533;SDS011;5823;50.588;8.462;2023-05-07T08:32:55;0.90;;;0.90;;
11533;SDS011;5823;50.588;8.462;2023-05-07T08:35:22;0.90;;;0.90;;
11533;SDS011;5823;50.588;8.462;2023-05-07T08:37:48;1.30;;;1.20;;
11533;SDS011;5823;50.588;8.462;2023-05-07T08:40:14;1.23;;;1.13;;
11533;SDS011;5823;50.588;8.462;2023-05-07T08:42:40;0.88;;;0.88;;
11533;SDS011;5823;50.588;8.462;2023-05-07T08:45:08;1.33;;;1.23;;
11533;SDS011;5823;50.588;8.462;2023-05-07T08:47:40;1.00;;;1.00;;
11533;SDS011;5823;50.588;8.462;2023-05-07T08:50:08;1.20;;;1.10;;
11533;SDS011;5823;50.588;8.462;2023-05-07T08:52:34;1.10;;;1.10;;
11533;SDS011;5823;50.588;8.462;2023-05-07T08:55:01;0.80;;;0.80;;
11533;SDS011;5823;50.588;8.462;2023-05-07T08:57:28;0.98;;;0.98;;
11533;SDS011;5823;50.588;8.462;2023-05-07T08:59:54;1.10;;;1.10;;
11533;SDS011;5823;50.588;8.462;2023-05-07T09:02:21;1.30;;;1.17;;
11533;SDS011;5823;50.588;8.462;2023-05-07T09:04:48;1.33;;;1.23;;
11533;SDS011;5823;50.588;8.462;2023-05-07T09:07:15;1.42;;;1.33;;
11533;SDS011;5823;50.588;8.462;2023-05-07T09:09:43;1.30;;;1.20;;
11533;SDS011;5823;50.588;8.462;2023-05-07T09:12:09;1.70;;;1.60;;
11533;SDS011;5823;50.588;8.462;2023-05-07T09:14:36;1.58;;;1.48;;
11533;SDS011;5823;50.588;8.462;2023-05-07T09:17:02;1.67;;;1.58;;
11533;SDS011;5823;50.588;8.462;2023-05-07T09:19:28;1.30;;;1.25;;
11533;SDS011;5823;50.588;8.462;2023-05-07T09:21:59;1.33;;;1.23;;
11533;SDS011;5823;50.588;8.462;2023-05-07T09:24:26;1.30;;;1.20;;
11533;SDS011;5823;50.588;8.462;2023-05-07T09:26:53;1.38;;;1.27;;
11533;SDS011;5823;50.588;8.462;2023-05-07T09:29:20;0.73;;;0.73;;
11533;SDS011;5823;50.588;8.462;2023-05-07T09:31:47;1.20;;;1.10;;
11533;SDS011;5823;50.588;8.462;2023-05-07T09:34:13;1.42;;;1.33;;
11533;SDS011;5823;50.588;8.462;2023-05-07T09:36:39;1.08;;;1.08;;
11533;SDS011;5823;50.588;8.462;2023-05-07T09:39:07;0.95;;;0.95;;
11533;SDS011;5823;50.588;8.462;2023-05-07T09:41:33;1.25;;;1.15;;
11533;SDS011;5823;50.588;8.462;2023-05-07T09:44:08;0.98;;;0.98;;
11533;SDS011;5823;50.588;8.462;2023-05-07T09:46:36;1.30;;;1.20;;
11533;SDS011;5823;50.588;8.462;2023-05-07T09:49:02;1.40;;;1.30;;
11533;SDS011;5823;50.588;8.462;2023-05-07T09:51:30;1.35;;;1.20;;
11533;SDS011;5823;50.588;8.462;2023-05-07T09:53:56;1.20;;;1.10;;
11533;SDS011;5823;50.588;8.462;2023-05-07T09:56:24;1.00;;;1.00;;
11533;SDS011;5823;50.588;8.462;2023-05-07T09:58:50;1.77;;;1.67;;
11533;SDS011;5823;50.588;8.462;2023-05-07T10:01:17;1.60;;;1.50;;
11533;SDS011;5823;50.588;8.462;2023-05-07T10:03:44;1.10;;;1.08;;
11533;SDS011;5823;50.588;8.462;2023-05-07T10:06:10;1.40;;;1.27;;
11533;SDS011;5823;50.588;8.462;2023-05-07T10:08:37;1.70;;;1.60;;
11533;SDS011;5823;50.588;8.462;2023-05-07T10:11:04;1.30;;;1.20;;
11533;SDS011;5823;50.588;8.462;2023-05-07T10:13:33;1.70;;;1.60;;
11533;SDS011;5823;50.588;8.462;2023-05-07T10:16:01;2.17;;;2.00;;
11533;SDS011;5823;50.588;8.462;2023-05-07T10:18:27;1.23;;;1.13;;
11533;SDS011;5823;50.588;8.462;2023-05-07T10:20:58;1.80;;;1.60;;
11533;SDS011;5823;50.588;8.462;2023-05-07T10:23:26;1.05;;;1.00;;
11533;SDS011;5823;50.588;8.462;2023-05-07T10:25:53;1.77;;;1.67;;
11533;SDS011;5823;50.588;8.462;2023-05-07T10:28:20;1.40;;;1.30;;
11533;SDS011;5823;50.588;8.462;2023-05-07T10:30:51;1.23;;;1.13;;
11533;SDS011;5823;50.588;8.462;2023-05-07T10:33:22;1.38;;;1.27;;
11533;SDS011;5823;50.588;8.462;2023-05-07T10:35:49;0.90;;;0.90;;
11533;SDS011;5823;50.588;8.462;2023-05-07T10:38:16;1.60;;;1.50;;
11533;SDS011;5823;50.588;8.462;2023-05-07T10:40:42;1.50;;;1.40;;
11533;SDS011;5823;50.588;8.462;2023-05-07T10:43:09;1.30;;;1.20;;
11533;SDS011;5823;50.588;8.462;2023-05-07T10:45:35;1.08;;;0.98;;
11533;SDS011;5823;50.588;8.462;2023-05-07T10:48:09;1.40;;;1.30;;
11533;SDS011;5823;50.588;8.462;2023-05-07T10:50:36;1.70;;;1.60;;
11533;SDS011;5823;50.588;8.462;2023-05-07T10:53:21;1.75;;;1.65;;
11533;SDS011;5823;50.588;8.462;2023-05-07T10:55:49;1.30;;;1.20;;
11533;SDS011;5823;50.588;8.462;2023-05-07T10:58:22;1.00;;;0.90;;
11533;SDS011;5823;50.588;8.462;2023-05-07T11:00:50;1.30;;;1.20;;
11533;SDS011;5823;50.588;8.462;2023-05-07T11:03:18;1.30;;;1.20;;
11533;SDS011;5823;50.588;8.462;2023-05-07T11:05:47;1.30;;;1.20;;
11533;SDS011;5823;50.588;8.462;2023-05-07T11:08:14;0.90;;;0.90;;
11533;SDS011;5823;50.588;8.462;2023-05-07T11:10:50;1.27;;;1.17;;
11533;SDS011;5823;50.588;8.462;2023-05-07T11:13:17;1.40;;;1.30;;
11533;SDS011;5823;50.588;8.462;2023-05-07T11:15:45;1.58;;;1.48;;
11533;SDS011;5823;50.588;8.462;2023-05-07T11:18:11;1.45;;;1.35;;
11533;SDS011;5823;50.588;8.462;2023-05-07T11:20:46;1.50;;;1.40;;
11533;SDS011;5823;50.588;8.462;2023-05-07T11:25:57;0.73;;;0.73;;
11533;SDS011;5823;50.588;8.462;2023-05-07T11:28:24;1.15;;;1.08;;
11533;SDS011;5823;50.588;8.462;2023-05-07T11:30:50;1.30;;;1.20;;
11533;SDS011;5823;50.588;8.462;2023-05-07T11:33:16;1.40;;;1.30;;
11533;SDS011;5823;50.588;8.462;2023-05-07T11:35:43;0.80;;;0.80;;
11533;SDS011;5823;50.588;8.462;2023-05-07T11:38:10;1.48;;;1.38;;
11533;SDS011;5823;50.588;8.462;2023-05-07T11:40:47;1.02;;;1.02;;
11533;SDS011;5823;50.588;8.462;2023-05-07T11:43:14;1.08;;;1.00;;
11533;SDS011;5823;50.588;8.462;2023-05-07T11:45:40;1.00;;;1.00;;
11533;SDS011;5823;50.588;8.462;2023-05-07T11:48:06;1.25;;;1.15;;
11533;SDS011;5823;50.588;8.462;2023-05-07T11:50:32;0.90;;;0.90;;
11533;SDS011;5823;50.588;8.462;2023-05-07T11:52:59;1.30;;;1.20;;
11533;SDS011;5823;50.588;8.462;2023-05-07T11:55:26;1.23;;;1.10;;
11533;SDS011;5823;50.588;8.462;2023-05-07T11:57:53;1.50;;;1.10;;
11533;SDS011;5823;50.588;8.462;2023-05-07T12:00:19;1.50;;;1.40;;
11533;SDS011;5823;50.588;8.462;2023-05-07T12:02:45;1.27;;;1.17;;
11533;SDS011;5823;50.588;8.462;2023-05-07T12:05:12;2.83;;;1.50;;
11533;SDS011;5823;50.588;8.462;2023-05-07T12:07:38;1.00;;;1.00;;
11533;SDS011;5823;50.588;8.462;2023-05-07T12:10:04;0.98;;;0.98;;
11533;SDS011;5823;50.588;8.462;2023-05-07T12:12:32;1.42;;;1.20;;
11533;SDS011;5823;50.588;8.462;2023-05-07T12:15:03;1.10;;;1.00;;
11533;SDS011;5823;50.588;8.462;2023-05-07T12:17:30;1.48;;;1.38;;
11533;SDS011;5823;50.588;8.462;2023-05-07T12:19:56;1.48;;;1.38;;
11533;SDS011;5823;50.588;8.462;2023-05-07T12:22:22;0.93;;;0.93;;
11533;SDS011;5823;50.588;8.462;2023-05-07T12:24:49;1.65;;;1.55;;
11533;SDS011;5823;50.588;8.462;2023-05-07T12:27:16;1.20;;;1.10;;
11533;SDS011;5823;50.588;8.462;2023-05-07T12:29:47;0.90;;;0.90;;
11533;SDS011;5823;50.588;8.462;2023-05-07T12:32:13;1.40;;;1.30;;
11533;SDS011;5823;50.588;8.462;2023-05-07T12:34:39;0.80;;;0.80;;
11533;SDS011;5823;50.588;8.462;2023-05-07T12:37:06;1.30;;;1.20;;
11533;SDS011;5823;50.588;8.462;2023-05-07T12:39:32;0.90;;;0.90;;
11533;SDS011;5823;50.588;8.462;2023-05-07T12:41:59;1.17;;;1.08;;
11533;SDS011;5823;50.588;8.462;2023-05-07T12:44:26;0.88;;;0.88;;
11533;SDS011;5823;50.588;8.462;2023-05-07T12:46:56;1.23;;;0.90;;
11533;SDS011;5823;50.588;8.462;2023-05-07T12:49:22;0.77;;;0.77;;
11533;SDS011;5823;50.588;8.462;2023-05-07T12:51:49;1.20;;;1.10;;
11533;SDS011;5823;50.588;8.462;2023-05-07T12:54:27;1.30;;;1.20;;
11533;SDS011;5823;50.588;8.462;2023-05-07T12:56:59;0.90;;;0.90;;
11533;SDS011;5823;50.588;8.462;2023-05-07T12:59:30;1.20;;;1.10;;
11533;SDS011;5823;50.588;8.462;2023-05-07T13:01:58;0.90;;;0.90;;
11533;SDS011;5823;50.588;8.462;2023-05-07T13:04:24;1.10;;;1.05;;
11533;SDS011;5823;50.588;8.462;2023-05-07T13:06:50;1.15;;;1.05;;
11533;SDS011;5823;50.588;8.462;2023-05-07T13:09:17;0.90;;;0.90;;
11533;SDS011;5823;50.588;8.462;2023-05-07T13:11:43;0.90;;;0.90;;
11533;SDS011;5823;50.588;8.462;2023-05-07T13:14:09;1.30;;;1.20;;
11533;SDS011;5823;50.588;8.462;2023-05-07T13:16:35;1.02;;;1.02;;
11533;SDS011;5823;50.588;8.462;2023-05-07T13:19:03;0.90;;;0.90;;
11533;SDS011;5823;50.588;8.462;2023-05-07T13:21:29;0.70;;;0.70;;
11533;SDS011;5823;50.588;8.462;2023-05-07T13:23:56;0.70;;;0.70;;
11533;SDS011;5823;50.588;8.462;2023-05-07T13:26:22;0.80;;;0.80;;
11533;SDS011;5823;50.588;8.462;2023-05-07T13:28:49;0.70;;;0.70;;
11533;SDS011;5823;50.588;8.462;2023-05-07T13:31:15;0.60;;;0.60;;
11533;SDS011;5823;50.588;8.462;2023-05-07T13:33:42;0.73;;;0.73;;
11533;SDS011;5823;50.588;8.462;2023-05-07T13:36:09;0.85;;;0.85;;
11533;SDS011;5823;50.588;8.462;2023-05-07T13:38:36;0.90;;;0.90;;
11533;SDS011;5823;50.588;8.462;2023-05-07T13:41:02;1.02;;;1.02;;
11533;SDS011;5823;50.588;8.462;2023-05-07T13:43:28;1.00;;;1.00;;
11533;SDS011;5823;50.588;8.462;2023-05-07T13:45:54;0.93;;;0.93;;
11533;SDS011;5823;50.588;8.462;2023-05-07T13:48:20;1.00;;;1.00;;
11533;SDS011;5823;50.588;8.462;2023-05-07T13:50:47;1.08;;;1.00;;
11533;SDS011;5823;50.588;8.462;2023-05-07T13:53:14;1.42;;;1.33;;
11533;SDS011;5823;50.588;8.462;2023-05-07T13:55:42;1.33;;;1.23;;
11533;SDS011;5823;50.588;8.462;2023-05-07T13:58:09;1.00;;;1.00;;
11533;SDS011;5823;50.588;8.462;2023-05-07T14:00:35;1.17;;;1.15;;
11533;SDS011;5823;50.588;8.462;2023-05-07T14:03:02;1.20;;;1.10;;
11533;SDS011;5823;50.588;8.462;2023-05-07T14:05:28;1.05;;;1.05;;
11533;SDS011;5823;50.588;8.462;2023-05-07T14:07:54;1.00;;;1.00;;
11533;SDS011;5823;50.588;8.462;2023-05-07T14:10:23;1.25;;;1.15;;
11533;SDS011;5823;50.588;8.462;2023-05-07T14:12:50;1.00;;;1.00;;
11533;SDS011;5823;50.588;8.462;2023-05-07T14:15:17;1.10;;;1.10;;
11533;SDS011;5823;50.588;8.462;2023-05-07T14:17:44;1.30;;;1.20;;
11533;SDS011;5823;50.588;8.462;2023-05-07T14:20:10;1.30;;;1.20;;
11533;SDS011;5823;50.588;8.462;2023-05-07T14:22:36;0.93;;;0.93;;
11533;SDS011;5823;50.588;8.462;2023-05-07T14:25:03;0.80;;;0.80;;
11533;SDS011;5823;50.588;8.462;2023-05-07T14:27:31;1.42;;;1.17;;
11533;SDS011;5823;50.588;8.462;2023-05-07T14:29:57;0.88;;;0.88;;
11533;SDS011;5823;50.588;8.462;2023-05-07T14:32:23;1.13;;;1.10;;
11533;SDS011;5823;50.588;8.462;2023-05-07T14:34:50;1.30;;;1.20;;
11533;SDS011;5823;50.588;8.462;2023-05-07T14:37:16;1.38;;;1.27;;
11533;SDS011;5823;50.588;8.462;2023-05-07T14:39:44;2.47;;;1.30;;
11533;SDS011;5823;50.588;8.462;2023-05-07T14:42:11;1.30;;;1.20;;
11533;SDS011;5823;50.588;8.462;2023-05-07T14:44:38;1.30;;;1.20;;
11533;SDS011;5823;50.588;8.462;2023-05-07T14:47:06;1.30;;;1.20;;
11533;SDS011;5823;50.588;8.462;2023-05-07T14:49:33;1.15;;;1.10;;
11533;SDS011;5823;50.588;8.462;2023-05-07T14:51:59;1.20;;;1.10;;
11533;SDS011;5823;50.588;8.462;2023-05-07T14:54:25;0.80;;;0.80;;
11533;SDS011;5823;50.588;8.462;2023-05-07T14:56:51;0.90;;;0.90;;
11533;SDS011;5823;50.588;8.462;2023-05-07T14:59:18;0.80;;;0.80;;
11533;SDS011;5823;50.588;8.462;2023-05-07T15:01:47;0.82;;;0.82;;